sensor_id;sensor_type;location;lat;lon;timestamp;temperature;humidity
22167;DHT22;11249;52.468;13.776;2022-08-01T00:02:14;21.80;99.90
22167;DHT22;11249;52.468;13.776;2022-08-01T00:04:41;21.80;99.90
22167;DHT22;11249;52.468;13.776;2022-08-01T00:07:14;21.90;99.90
22167;DHT22;11249;52.468;13.776;2022-08-01T00:09:41;21.80;99.90
22167;DHT22;11249;52.468;13.776;2022-08-01T00:12:14;21.80;99.90
22167;DHT22;11249;52.468;13.776;2022-08-01T00:14:47;21.70;99.90
22167;DHT22;11249;52.468;13.776;2022-08-01T00:17:20;21.70;99.90
22167;DHT22;11249;52.468;13.776;2022-08-01T00:20:00;21.60;99.90
22167;DHT22;11249;52.468;13.776;2022-08-01T00:22:35;21.60;99.90
22167;DHT22;11249;52.468;13.776;2022-08-01T00:25:15;21.60;99.90
22167;DHT22;11249;52.468;13.776;2022-08-01T00:28:00;21.60;99.90
22167;DHT22;11249;52.468;13.776;2022-08-01T00:30:33;21.50;99.90
22167;DHT22;11249;52.468;13.776;2022-08-01T00:33:00;21.50;99.90
22167;DHT22;11249;52.468;13.776;2022-08-01T00:35:27;21.60;99.90
22167;DHT22;11249;52.468;13.776;2022-08-01T00:38:00;21.50;99.90
22167;DHT22;11249;52.468;13.776;2022-08-01T00:40:33;21.40;99.90
22167;DHT22;11249;52.468;13.776;2022-08-01T00:43:00;21.50;99.90
22167;DHT22;11249;52.468;13.776;2022-08-01T00:45:33;21.40;99.90
22167;DHT22;11249;52.468;13.776;2022-08-01T00:48:21;21.40;99.90
22167;DHT22;11249;52.468;13.776;2022-08-01T00:50:48;21.40;99.90
22167;DHT22;11249;52.468;13.776;2022-08-01T00:53:22;21.30;99.90
22167;DHT22;11249;52.468;13.776;2022-08-01T00:55:51;21.30;99.90
22167;DHT22;11249;52.468;13.776;2022-08-01T00:58:24;21.30;99.90
22167;DHT22;11249;52.468;13.776;2022-08-01T01:00:51;21.30;99.90
22167;DHT22;11249;52.468;13.776;2022-08-01T01:03:21;21.30;99.90
22167;DHT22;11249;52.468;13.776;2022-08-01T01:06:31;21.30;99.90
22167;DHT22;11249;52.468;13.776;2022-08-01T01:09:17;21.20;99.90
22167;DHT22;11249;52.468;13.776;2022-08-01T01:15:10;21.20;99.90
22167;DHT22;11249;52.468;13.776;2022-08-01T01:20:38;21.10;99.90
22167;DHT22;11249;52.468;13.776;2022-08-01T01:23:24;21.10;99.90
22167;DHT22;11249;52.468;13.776;2022-08-01T01:26:12;21.10;99.90
22167;DHT22;11249;52.468;13.776;2022-08-01T01:28:58;21.00;99.90
22167;DHT22;11249;52.468;13.776;2022-08-01T01:31:40;21.00;99.90
22167;DHT22;11249;52.468;13.776;2022-08-01T01:34:09;20.90;99.90
22167;DHT22;11249;52.468;13.776;2022-08-01T01:36:45;20.90;99.90
22167;DHT22;11249;52.468;13.776;2022-08-01T01:39:14;20.80;99.90
22167;DHT22;11249;52.468;13.776;2022-08-01T01:41:49;20.80;99.90
22167;DHT22;11249;52.468;13.776;2022-08-01T01:44:23;20.80;99.90
22167;DHT22;11249;52.468;13.776;2022-08-01T01:46:59;20.70;99.90
22167;DHT22;11249;52.468;13.776;2022-08-01T01:49:34;20.70;99.90
22167;DHT22;11249;52.468;13.776;2022-08-01T01:52:02;20.70;99.90
22167;DHT22;11249;52.468;13.776;2022-08-01T01:54:33;20.70;99.90
22167;DHT22;11249;52.468;13.776;2022-08-01T01:57:08;20.60;99.90
22167;DHT22;11249;52.468;13.776;2022-08-01T01:59:46;20.60;99.90
22167;DHT22;11249;52.468;13.776;2022-08-01T02:02:14;20.60;99.90
22167;DHT22;11249;52.468;13.776;2022-08-01T02:04:44;20.60;99.90
22167;DHT22;11249;52.468;13.776;2022-08-01T02:07:22;20.50;99.90
22167;DHT22;11249;52.468;13.776;2022-08-01T02:09:51;20.50;99.90
22167;DHT22;11249;52.468;13.776;2022-08-01T02:12:25;20.50;99.90
22167;DHT22;11249;52.468;13.776;2022-08-01T02:14:54;20.50;99.90
22167;DHT22;11249;52.468;13.776;2022-08-01T02:17:28;20.40;99.90
22167;DHT22;11249;52.468;13.776;2022-08-01T02:20:03;20.50;99.90
22167;DHT22;11249;52.468;13.776;2022-08-01T02:22:46;20.50;99.90
22167;DHT22;11249;52.468;13.776;2022-08-01T02:25:23;20.40;99.90
22167;DHT22;11249;52.468;13.776;2022-08-01T02:28:02;20.40;99.90
22167;DHT22;11249;52.468;13.776;2022-08-01T02:30:33;20.40;99.90
22167;DHT22;11249;52.468;13.776;2022-08-01T02:33:20;20.40;99.90
22167;DHT22;11249;52.468;13.776;2022-08-01T02:35:52;20.40;99.90
22167;DHT22;11249;52.468;13.776;2022-08-01T02:38:46;20.50;99.90
22167;DHT22;11249;52.468;13.776;2022-08-01T02:41:21;20.50;99.90
22167;DHT22;11249;52.468;13.776;2022-08-01T02:43:53;20.50;99.90
22167;DHT22;11249;52.468;13.776;2022-08-01T02:46:39;20.50;99.90
22167;DHT22;11249;52.468;13.776;2022-08-01T02:49:12;20.50;99.90
22167;DHT22;11249;52.468;13.776;2022-08-01T02:51:48;20.40;99.90
22167;DHT22;11249;52.468;13.776;2022-08-01T02:54:17;20.40;99.90
22167;DHT22;11249;52.468;13.776;2022-08-01T02:56:47;20.40;99.90
22167;DHT22;11249;52.468;13.776;2022-08-01T02:59:24;20.30;99.90
22167;DHT22;11249;52.468;13.776;2022-08-01T03:01:54;20.30;99.90
22167;DHT22;11249;52.468;13.776;2022-08-01T03:04:30;20.30;99.90
22167;DHT22;11249;52.468;13.776;2022-08-01T03:07:06;20.20;99.90
22167;DHT22;11249;52.468;13.776;2022-08-01T03:09:37;20.30;99.90
22167;DHT22;11249;52.468;13.776;2022-08-01T03:12:14;20.30;99.90
22167;DHT22;11249;52.468;13.776;2022-08-01T03:14:43;20.30;99.90
22167;DHT22;11249;52.468;13.776;2022-08-01T03:17:25;20.20;99.90
22167;DHT22;11249;52.468;13.776;2022-08-01T03:19:54;20.20;99.90
22167;DHT22;11249;52.468;13.776;2022-08-01T03:22:29;20.20;99.90
22167;DHT22;11249;52.468;13.776;2022-08-01T03:24:58;20.20;99.90
22167;DHT22;11249;52.468;13.776;2022-08-01T03:27:26;20.10;99.90
22167;DHT22;11249;52.468;13.776;2022-08-01T03:29:59;20.10;99.90
22167;DHT22;11249;52.468;13.776;2022-08-01T03:32:35;20.00;99.90
22167;DHT22;11249;52.468;13.776;2022-08-01T03:35:02;19.90;99.90
22167;DHT22;11249;52.468;13.776;2022-08-01T03:37:45;19.90;99.90
22167;DHT22;11249;52.468;13.776;2022-08-01T03:40:45;19.90;99.90
22167;DHT22;11249;52.468;13.776;2022-08-01T03:43:46;19.80;99.90
22167;DHT22;11249;52.468;13.776;2022-08-01T03:46:33;19.80;99.90
22167;DHT22;11249;52.468;13.776;2022-08-01T03:49:06;19.70;99.90
22167;DHT22;11249;52.468;13.776;2022-08-01T03:51:40;19.60;99.90
22167;DHT22;11249;52.468;13.776;2022-08-01T03:54:08;19.50;99.90
22167;DHT22;11249;52.468;13.776;2022-08-01T03:56:43;19.40;99.90
22167;DHT22;11249;52.468;13.776;2022-08-01T03:59:19;19.40;99.90
22167;DHT22;11249;52.468;13.776;2022-08-01T04:01:46;19.40;99.90
22167;DHT22;11249;52.468;13.776;2022-08-01T04:04:14;19.40;99.90
22167;DHT22;11249;52.468;13.776;2022-08-01T04:06:54;19.40;99.90
22167;DHT22;11249;52.468;13.776;2022-08-01T04:09:35;19.40;99.90
22167;DHT22;11249;52.468;13.776;2022-08-01T04:12:15;19.50;99.90
22167;DHT22;11249;52.468;13.776;2022-08-01T04:14:49;19.50;99.90
22167;DHT22;11249;52.468;13.776;2022-08-01T04:17:16;19.60;99.90
22167;DHT22;11249;52.468;13.776;2022-08-01T04:19:57;19.60;99.90
22167;DHT22;11249;52.468;13.776;2022-08-01T04:22:30;19.60;99.90
22167;DHT22;11249;52.468;13.776;2022-08-01T04:25:07;19.70;99.90
22167;DHT22;11249;52.468;13.776;2022-08-01T04:27:45;19.70;99.90
22167;DHT22;11249;52.468;13.776;2022-08-01T04:30:24;19.80;99.90
22167;DHT22;11249;52.468;13.776;2022-08-01T04:33:00;19.80;99.90
22167;DHT22;11249;52.468;13.776;2022-08-01T04:35:28;19.80;99.90
22167;DHT22;11249;52.468;13.776;2022-08-01T04:38:20;19.80;99.90
22167;DHT22;11249;52.468;13.776;2022-08-01T04:40:54;19.80;99.90
22167;DHT22;11249;52.468;13.776;2022-08-01T04:43:22;19.80;99.90
22167;DHT22;11249;52.468;13.776;2022-08-01T04:45:58;19.90;99.90
22167;DHT22;11249;52.468;13.776;2022-08-01T04:48:26;20.00;99.90
22167;DHT22;11249;52.468;13.776;2022-08-01T04:50:53;20.00;99.90
22167;DHT22;11249;52.468;13.776;2022-08-01T04:53:26;20.00;99.90
22167;DHT22;11249;52.468;13.776;2022-08-01T04:55:54;20.10;99.90
22167;DHT22;11249;52.468;13.776;2022-08-01T04:58:20;20.10;99.90
22167;DHT22;11249;52.468;13.776;2022-08-01T05:00:54;20.10;99.90
22167;DHT22;11249;52.468;13.776;2022-08-01T05:03:27;20.20;99.90
22167;DHT22;11249;52.468;13.776;2022-08-01T05:05:54;20.20;99.90
22167;DHT22;11249;52.468;13.776;2022-08-01T05:08:27;20.20;99.90
22167;DHT22;11249;52.468;13.776;2022-08-01T05:10:54;20.20;99.90
22167;DHT22;11249;52.468;13.776;2022-08-01T05:13:27;20.10;99.90
22167;DHT22;11249;52.468;13.776;2022-08-01T05:16:07;20.10;99.90
22167;DHT22;11249;52.468;13.776;2022-08-01T05:18:33;20.20;99.90
22167;DHT22;11249;52.468;13.776;2022-08-01T05:21:13;20.20;99.90
22167;DHT22;11249;52.468;13.776;2022-08-01T05:23:39;20.20;99.90
22167;DHT22;11249;52.468;13.776;2022-08-01T05:26:13;20.20;99.90
22167;DHT22;11249;52.468;13.776;2022-08-01T05:28:46;20.30;99.90
22167;DHT22;11249;52.468;13.776;2022-08-01T05:31:13;20.30;99.90
22167;DHT22;11249;52.468;13.776;2022-08-01T05:33:46;20.30;99.90
22167;DHT22;11249;52.468;13.776;2022-08-01T05:36:13;20.30;99.90
22167;DHT22;11249;52.468;13.776;2022-08-01T05:38:46;20.30;99.90
22167;DHT22;11249;52.468;13.776;2022-08-01T05:41:19;20.30;99.90
22167;DHT22;11249;52.468;13.776;2022-08-01T05:43:53;20.30;99.90
22167;DHT22;11249;52.468;13.776;2022-08-01T05:46:26;20.30;99.90
22167;DHT22;11249;52.468;13.776;2022-08-01T05:48:53;20.30;99.90
22167;DHT22;11249;52.468;13.776;2022-08-01T05:51:26;20.30;99.90
22167;DHT22;11249;52.468;13.776;2022-08-01T05:53:53;20.30;99.90
22167;DHT22;11249;52.468;13.776;2022-08-01T05:56:21;20.30;99.90
22167;DHT22;11249;52.468;13.776;2022-08-01T05:58:57;20.20;99.90
22167;DHT22;11249;52.468;13.776;2022-08-01T06:01:24;20.20;99.90
22167;DHT22;11249;52.468;13.776;2022-08-01T06:03:51;20.20;99.90
22167;DHT22;11249;52.468;13.776;2022-08-01T06:06:27;20.20;99.90
22167;DHT22;11249;52.468;13.776;2022-08-01T06:08:54;20.20;99.90
22167;DHT22;11249;52.468;13.776;2022-08-01T06:11:27;20.20;99.90
22167;DHT22;11249;52.468;13.776;2022-08-01T06:14:00;20.20;99.90
22167;DHT22;11249;52.468;13.776;2022-08-01T06:16:27;20.20;99.90
22167;DHT22;11249;52.468;13.776;2022-08-01T06:19:07;20.10;99.90
22167;DHT22;11249;52.468;13.776;2022-08-01T06:21:34;20.10;99.90
22167;DHT22;11249;52.468;13.776;2022-08-01T06:24:07;20.20;99.90
22167;DHT22;11249;52.468;13.776;2022-08-01T06:26:41;20.20;99.90
22167;DHT22;11249;52.468;13.776;2022-08-01T06:29:08;20.30;99.90
22167;DHT22;11249;52.468;13.776;2022-08-01T06:31:35;20.30;99.90
22167;DHT22;11249;52.468;13.776;2022-08-01T06:34:26;20.40;99.90
22167;DHT22;11249;52.468;13.776;2022-08-01T06:36:59;20.30;99.90
22167;DHT22;11249;52.468;13.776;2022-08-01T06:39:33;20.40;99.90
22167;DHT22;11249;52.468;13.776;2022-08-01T06:42:06;20.40;99.90
22167;DHT22;11249;52.468;13.776;2022-08-01T06:44:39;20.40;99.90
22167;DHT22;11249;52.468;13.776;2022-08-01T06:47:06;20.40;99.90
22167;DHT22;11249;52.468;13.776;2022-08-01T06:49:39;20.40;99.90
22167;DHT22;11249;52.468;13.776;2022-08-01T06:52:12;20.30;99.90
22167;DHT22;11249;52.468;13.776;2022-08-01T06:54:39;20.30;99.90
22167;DHT22;11249;52.468;13.776;2022-08-01T06:57:05;20.30;99.90
22167;DHT22;11249;52.468;13.776;2022-08-01T06:59:39;20.30;99.90
22167;DHT22;11249;52.468;13.776;2022-08-01T07:02:20;20.40;99.90
22167;DHT22;11249;52.468;13.776;2022-08-01T07:04:47;20.40;99.90
22167;DHT22;11249;52.468;13.776;2022-08-01T07:07:20;20.40;99.90
22167;DHT22;11249;52.468;13.776;2022-08-01T07:09:47;20.50;99.90
22167;DHT22;11249;52.468;13.776;2022-08-01T07:12:13;20.50;99.90
22167;DHT22;11249;52.468;13.776;2022-08-01T07:14:47;20.50;99.90
22167;DHT22;11249;52.468;13.776;2022-08-01T07:17:27;20.50;99.90
22167;DHT22;11249;52.468;13.776;2022-08-01T07:20:01;20.70;99.90
22167;DHT22;11249;52.468;13.776;2022-08-01T07:22:28;20.80;99.90
22167;DHT22;11249;52.468;13.776;2022-08-01T07:25:04;21.00;99.90
22167;DHT22;11249;52.468;13.776;2022-08-01T07:27:31;21.10;99.90
22167;DHT22;11249;52.468;13.776;2022-08-01T07:29:58;21.30;99.90
22167;DHT22;11249;52.468;13.776;2022-08-01T07:32:31;21.40;99.90
22167;DHT22;11249;52.468;13.776;2022-08-01T07:35:05;21.60;99.90
22167;DHT22;11249;52.468;13.776;2022-08-01T07:37:32;21.70;99.90
22167;DHT22;11249;52.468;13.776;2022-08-01T07:40:15;21.70;99.90
22167;DHT22;11249;52.468;13.776;2022-08-01T07:42:41;21.60;99.90
22167;DHT22;11249;52.468;13.776;2022-08-01T07:45:16;21.60;99.90
22167;DHT22;11249;52.468;13.776;2022-08-01T07:47:43;21.50;99.90
22167;DHT22;11249;52.468;13.776;2022-08-01T07:50:16;21.50;99.90
22167;DHT22;11249;52.468;13.776;2022-08-01T07:52:43;21.50;99.90
22167;DHT22;11249;52.468;13.776;2022-08-01T07:55:11;21.40;99.90
22167;DHT22;11249;52.468;13.776;2022-08-01T07:57:44;21.30;99.90
22167;DHT22;11249;52.468;13.776;2022-08-01T08:00:17;21.30;99.90
22167;DHT22;11249;52.468;13.776;2022-08-01T08:02:51;21.30;99.90
22167;DHT22;11249;52.468;13.776;2022-08-01T08:05:18;21.30;99.90
22167;DHT22;11249;52.468;13.776;2022-08-01T08:08:06;21.40;99.90
22167;DHT22;11249;52.468;13.776;2022-08-01T08:10:40;21.50;99.90
22167;DHT22;11249;52.468;13.776;2022-08-01T08:13:07;21.60;99.90
22167;DHT22;11249;52.468;13.776;2022-08-01T08:15:34;21.70;99.90
22167;DHT22;11249;52.468;13.776;2022-08-01T08:18:20;21.70;99.90
22167;DHT22;11249;52.468;13.776;2022-08-01T08:20:53;21.70;99.90
22167;DHT22;11249;52.468;13.776;2022-08-01T08:23:20;21.60;99.90
22167;DHT22;11249;52.468;13.776;2022-08-01T08:26:12;21.60;99.90
22167;DHT22;11249;52.468;13.776;2022-08-01T08:28:45;21.60;99.90
22167;DHT22;11249;52.468;13.776;2022-08-01T08:31:19;21.70;99.90
22167;DHT22;11249;52.468;13.776;2022-08-01T08:34:06;21.80;99.90
22167;DHT22;11249;52.468;13.776;2022-08-01T08:36:41;21.80;99.90
22167;DHT22;11249;52.468;13.776;2022-08-01T08:39:13;21.80;99.90
22167;DHT22;11249;52.468;13.776;2022-08-01T08:41:48;21.80;99.90
22167;DHT22;11249;52.468;13.776;2022-08-01T08:44:16;21.80;99.90
22167;DHT22;11249;52.468;13.776;2022-08-01T08:46:45;21.90;99.90
22167;DHT22;11249;52.468;13.776;2022-08-01T08:49:21;22.00;99.90
22167;DHT22;11249;52.468;13.776;2022-08-01T08:51:50;22.00;99.90
22167;DHT22;11249;52.468;13.776;2022-08-01T08:54:24;22.10;99.90
22167;DHT22;11249;52.468;13.776;2022-08-01T08:56:58;22.20;99.90
22167;DHT22;11249;52.468;13.776;2022-08-01T08:59:32;22.40;99.90
22167;DHT22;11249;52.468;13.776;2022-08-01T09:01:59;22.30;99.90
22167;DHT22;11249;52.468;13.776;2022-08-01T09:04:26;22.10;99.90
22167;DHT22;11249;52.468;13.776;2022-08-01T09:06:59;22.00;99.90
22167;DHT22;11249;52.468;13.776;2022-08-01T09:09:26;21.80;99.90
22167;DHT22;11249;52.468;13.776;2022-08-01T09:11:54;21.70;99.90
22167;DHT22;11249;52.468;13.776;2022-08-01T09:14:28;21.60;99.90
22167;DHT22;11249;52.468;13.776;2022-08-01T09:17:03;21.50;99.90
22167;DHT22;11249;52.468;13.776;2022-08-01T09:19:48;21.60;99.90
22167;DHT22;11249;52.468;13.776;2022-08-01T09:22:20;21.50;99.90
22167;DHT22;11249;52.468;13.776;2022-08-01T09:25:04;21.50;99.90
22167;DHT22;11249;52.468;13.776;2022-08-01T09:27:33;21.70;99.90
22167;DHT22;11249;52.468;13.776;2022-08-01T09:30:16;21.90;99.90
22167;DHT22;11249;52.468;13.776;2022-08-01T09:33:03;22.10;99.90
22167;DHT22;11249;52.468;13.776;2022-08-01T09:35:55;22.20;99.90
22167;DHT22;11249;52.468;13.776;2022-08-01T09:38:24;22.40;99.90
22167;DHT22;11249;52.468;13.776;2022-08-01T09:41:00;22.70;99.90
22167;DHT22;11249;52.468;13.776;2022-08-01T09:43:30;23.00;99.90
22167;DHT22;11249;52.468;13.776;2022-08-01T09:46:10;23.20;99.90
22167;DHT22;11249;52.468;13.776;2022-08-01T09:49:02;23.10;99.90
22167;DHT22;11249;52.468;13.776;2022-08-01T09:51:38;22.80;99.90
22167;DHT22;11249;52.468;13.776;2022-08-01T09:54:32;22.60;99.90
22167;DHT22;11249;52.468;13.776;2022-08-01T09:57:14;22.30;99.90
22167;DHT22;11249;52.468;13.776;2022-08-01T09:59:51;22.40;99.90
22167;DHT22;11249;52.468;13.776;2022-08-01T10:02:32;22.50;99.90
22167;DHT22;11249;52.468;13.776;2022-08-01T10:05:01;22.80;99.90
22167;DHT22;11249;52.468;13.776;2022-08-01T10:07:38;23.00;99.90
22167;DHT22;11249;52.468;13.776;2022-08-01T10:10:23;23.10;99.90
22167;DHT22;11249;52.468;13.776;2022-08-01T10:12:58;23.10;99.90
22167;DHT22;11249;52.468;13.776;2022-08-01T10:15:35;23.20;99.90
22167;DHT22;11249;52.468;13.776;2022-08-01T10:18:11;23.10;99.90
22167;DHT22;11249;52.468;13.776;2022-08-01T10:20:52;23.10;99.90
22167;DHT22;11249;52.468;13.776;2022-08-01T10:23:26;23.20;99.90
22167;DHT22;11249;52.468;13.776;2022-08-01T10:26:07;23.30;99.90
22167;DHT22;11249;52.468;13.776;2022-08-01T10:28:44;23.30;99.90
22167;DHT22;11249;52.468;13.776;2022-08-01T10:31:11;23.10;99.90
22167;DHT22;11249;52.468;13.776;2022-08-01T10:33:40;23.10;99.90
22167;DHT22;11249;52.468;13.776;2022-08-01T10:36:21;23.00;99.90
22167;DHT22;11249;52.468;13.776;2022-08-01T10:38:52;22.80;99.90
22167;DHT22;11249;52.468;13.776;2022-08-01T10:41:27;22.80;99.90
22167;DHT22;11249;52.468;13.776;2022-08-01T10:43:56;22.70;99.90
22167;DHT22;11249;52.468;13.776;2022-08-01T10:46:31;22.50;99.90
22167;DHT22;11249;52.468;13.776;2022-08-01T10:49:13;22.40;99.90
22167;DHT22;11249;52.468;13.776;2022-08-01T10:51:42;22.30;99.90
22167;DHT22;11249;52.468;13.776;2022-08-01T10:54:24;22.30;99.90
22167;DHT22;11249;52.468;13.776;2022-08-01T10:56:59;22.30;99.90
22167;DHT22;11249;52.468;13.776;2022-08-01T10:59:29;22.20;99.90
22167;DHT22;11249;52.468;13.776;2022-08-01T11:02:31;22.20;99.90
22167;DHT22;11249;52.468;13.776;2022-08-01T11:05:04;22.20;99.90
22167;DHT22;11249;52.468;13.776;2022-08-01T11:07:48;22.20;99.90
22167;DHT22;11249;52.468;13.776;2022-08-01T11:10:39;22.20;99.90
22167;DHT22;11249;52.468;13.776;2022-08-01T11:13:06;22.10;99.90
22167;DHT22;11249;52.468;13.776;2022-08-01T11:15:48;22.00;99.90
22167;DHT22;11249;52.468;13.776;2022-08-01T11:18:31;22.00;99.90
22167;DHT22;11249;52.468;13.776;2022-08-01T11:21:06;21.90;99.90
22167;DHT22;11249;52.468;13.776;2022-08-01T11:23:59;22.00;99.90
22167;DHT22;11249;52.468;13.776;2022-08-01T11:26:26;22.20;99.90
22167;DHT22;11249;52.468;13.776;2022-08-01T11:29:14;22.30;99.90
22167;DHT22;11249;52.468;13.776;2022-08-01T11:31:49;22.50;99.90
22167;DHT22;11249;52.468;13.776;2022-08-01T11:34:18;22.70;99.90
22167;DHT22;11249;52.468;13.776;2022-08-01T11:37:22;22.80;99.90
22167;DHT22;11249;52.468;13.776;2022-08-01T11:40:17;22.90;99.90
22167;DHT22;11249;52.468;13.776;2022-08-01T11:45:50;22.80;99.90
22167;DHT22;11249;52.468;13.776;2022-08-01T11:48:27;22.80;99.90
22167;DHT22;11249;52.468;13.776;2022-08-01T11:50:56;22.70;99.90
22167;DHT22;11249;52.468;13.776;2022-08-01T11:53:27;22.60;99.90
22167;DHT22;11249;52.468;13.776;2022-08-01T11:56:06;22.50;99.90
22167;DHT22;11249;52.468;13.776;2022-08-01T11:58:43;22.50;99.90
22167;DHT22;11249;52.468;13.776;2022-08-01T12:01:12;22.40;99.90
22167;DHT22;11249;52.468;13.776;2022-08-01T12:03:55;22.40;99.90
22167;DHT22;11249;52.468;13.776;2022-08-01T12:06:29;22.30;99.90
22167;DHT22;11249;52.468;13.776;2022-08-01T12:09:18;22.20;99.90
22167;DHT22;11249;52.468;13.776;2022-08-01T12:11:52;22.20;99.90
22167;DHT22;11249;52.468;13.776;2022-08-01T12:14:20;22.10;99.90
22167;DHT22;11249;52.468;13.776;2022-08-01T12:16:53;22.00;99.90
22167;DHT22;11249;52.468;13.776;2022-08-01T12:19:34;22.00;99.90
22167;DHT22;11249;52.468;13.776;2022-08-01T12:22:13;21.80;99.90
22167;DHT22;11249;52.468;13.776;2022-08-01T12:24:46;21.80;99.90
22167;DHT22;11249;52.468;13.776;2022-08-01T12:27:27;21.70;99.90
22167;DHT22;11249;52.468;13.776;2022-08-01T12:30:04;21.20;99.90
22167;DHT22;11249;52.468;13.776;2022-08-01T12:32:33;20.90;99.90
22167;DHT22;11249;52.468;13.776;2022-08-01T12:35:10;20.80;99.90
22167;DHT22;11249;52.468;13.776;2022-08-01T12:37:48;20.90;99.90
22167;DHT22;11249;52.468;13.776;2022-08-01T12:40:24;20.90;99.90
22167;DHT22;11249;52.468;13.776;2022-08-01T12:43:04;21.10;99.90
22167;DHT22;11249;52.468;13.776;2022-08-01T12:45:42;21.20;99.90
22167;DHT22;11249;52.468;13.776;2022-08-01T12:48:24;21.40;99.90
22167;DHT22;11249;52.468;13.776;2022-08-01T12:50:58;21.60;99.90
22167;DHT22;11249;52.468;13.776;2022-08-01T12:53:27;21.90;99.90
22167;DHT22;11249;52.468;13.776;2022-08-01T12:56:07;22.20;99.90
22167;DHT22;11249;52.468;13.776;2022-08-01T12:58:42;22.50;99.90
22167;DHT22;11249;52.468;13.776;2022-08-01T13:01:10;22.60;99.90
22167;DHT22;11249;52.468;13.776;2022-08-01T13:03:59;22.60;99.90
22167;DHT22;11249;52.468;13.776;2022-08-01T13:06:32;22.80;99.90
22167;DHT22;11249;52.468;13.776;2022-08-01T13:09:09;22.80;99.90
22167;DHT22;11249;52.468;13.776;2022-08-01T13:11:44;22.80;99.90
22167;DHT22;11249;52.468;13.776;2022-08-01T13:14:30;22.60;99.90
22167;DHT22;11249;52.468;13.776;2022-08-01T13:17:07;22.60;99.90
22167;DHT22;11249;52.468;13.776;2022-08-01T13:19:48;22.50;99.90
22167;DHT22;11249;52.468;13.776;2022-08-01T13:22:35;22.50;99.90
22167;DHT22;11249;52.468;13.776;2022-08-01T13:25:16;22.40;99.90
22167;DHT22;11249;52.468;13.776;2022-08-01T13:28:16;22.50;99.90
22167;DHT22;11249;52.468;13.776;2022-08-01T13:31:02;22.40;99.90
22167;DHT22;11249;52.468;13.776;2022-08-01T13:33:42;22.40;99.90
22167;DHT22;11249;52.468;13.776;2022-08-01T13:36:10;22.60;99.90
22167;DHT22;11249;52.468;13.776;2022-08-01T13:38:54;22.90;99.90
22167;DHT22;11249;52.468;13.776;2022-08-01T13:41:39;23.00;99.90
22167;DHT22;11249;52.468;13.776;2022-08-01T13:44:13;23.30;99.90
22167;DHT22;11249;52.468;13.776;2022-08-01T13:46:42;23.30;99.90
22167;DHT22;11249;52.468;13.776;2022-08-01T13:49:17;23.30;99.90
22167;DHT22;11249;52.468;13.776;2022-08-01T13:51:44;23.30;99.90
22167;DHT22;11249;52.468;13.776;2022-08-01T13:54:12;23.10;99.90
22167;DHT22;11249;52.468;13.776;2022-08-01T13:56:46;23.00;99.90
22167;DHT22;11249;52.468;13.776;2022-08-01T13:59:13;22.90;99.90
22167;DHT22;11249;52.468;13.776;2022-08-01T14:01:46;22.80;99.90
22167;DHT22;11249;52.468;13.776;2022-08-01T14:04:13;22.70;99.90
22167;DHT22;11249;52.468;13.776;2022-08-01T14:06:47;22.70;99.90
22167;DHT22;11249;52.468;13.776;2022-08-01T14:09:20;22.60;99.90
22167;DHT22;11249;52.468;13.776;2022-08-01T14:11:50;22.60;99.90
22167;DHT22;11249;52.468;13.776;2022-08-01T14:14:23;22.70;99.90
22167;DHT22;11249;52.468;13.776;2022-08-01T14:16:50;22.80;99.90
22167;DHT22;11249;52.468;13.776;2022-08-01T14:19:37;22.90;99.90
22167;DHT22;11249;52.468;13.776;2022-08-01T14:22:16;23.00;99.90
22167;DHT22;11249;52.468;13.776;2022-08-01T14:24:49;23.10;99.90
22167;DHT22;11249;52.468;13.776;2022-08-01T14:27:27;23.10;99.90
22167;DHT22;11249;52.468;13.776;2022-08-01T14:29:56;23.20;99.90
22167;DHT22;11249;52.468;13.776;2022-08-01T14:32:30;23.30;99.90
22167;DHT22;11249;52.468;13.776;2022-08-01T14:34:57;23.20;99.90
22167;DHT22;11249;52.468;13.776;2022-08-01T14:37:31;23.20;99.90
22167;DHT22;11249;52.468;13.776;2022-08-01T14:40:06;23.20;99.90
22167;DHT22;11249;52.468;13.776;2022-08-01T14:42:45;23.20;99.90
22167;DHT22;11249;52.468;13.776;2022-08-01T14:45:12;23.20;99.90
22167;DHT22;11249;52.468;13.776;2022-08-01T14:47:41;23.30;99.90
22167;DHT22;11249;52.468;13.776;2022-08-01T14:50:15;23.30;99.90
22167;DHT22;11249;52.468;13.776;2022-08-01T14:52:42;23.30;99.90
22167;DHT22;11249;52.468;13.776;2022-08-01T14:55:10;23.40;99.90
22167;DHT22;11249;52.468;13.776;2022-08-01T14:57:45;23.50;99.90
22167;DHT22;11249;52.468;13.776;2022-08-01T15:00:12;23.60;99.90
22167;DHT22;11249;52.468;13.776;2022-08-01T15:02:39;23.60;99.90
22167;DHT22;11249;52.468;13.776;2022-08-01T15:05:17;23.70;99.90
22167;DHT22;11249;52.468;13.776;2022-08-01T15:07:50;23.90;99.90
22167;DHT22;11249;52.468;13.776;2022-08-01T15:10:19;24.00;99.90
22167;DHT22;11249;52.468;13.776;2022-08-01T15:12:52;24.10;99.90
22167;DHT22;11249;52.468;13.776;2022-08-01T15:15:19;24.50;99.90
22167;DHT22;11249;52.468;13.776;2022-08-01T15:17:46;25.20;99.90
22167;DHT22;11249;52.468;13.776;2022-08-01T15:20:19;25.60;99.90
22167;DHT22;11249;52.468;13.776;2022-08-01T15:22:46;25.70;99.90
22167;DHT22;11249;52.468;13.776;2022-08-01T15:25:20;25.30;99.90
22167;DHT22;11249;52.468;13.776;2022-08-01T15:27:47;25.00;99.90
22167;DHT22;11249;52.468;13.776;2022-08-01T15:30:20;25.00;99.90
22167;DHT22;11249;52.468;13.776;2022-08-01T15:32:52;24.90;99.90
22167;DHT22;11249;52.468;13.776;2022-08-01T15:35:26;24.90;99.90
22167;DHT22;11249;52.468;13.776;2022-08-01T15:37:53;24.60;99.90
22167;DHT22;11249;52.468;13.776;2022-08-01T15:40:26;24.30;99.90
22167;DHT22;11249;52.468;13.776;2022-08-01T15:42:54;24.10;99.90
22167;DHT22;11249;52.468;13.776;2022-08-01T15:45:22;24.10;99.90
22167;DHT22;11249;52.468;13.776;2022-08-01T15:48:18;24.10;99.90
22167;DHT22;11249;52.468;13.776;2022-08-01T15:50:45;24.10;99.90
22167;DHT22;11249;52.468;13.776;2022-08-01T15:53:18;24.00;99.90
22167;DHT22;11249;52.468;13.776;2022-08-01T15:55:45;23.80;99.90
22167;DHT22;11249;52.468;13.776;2022-08-01T15:58:18;23.90;99.90
22167;DHT22;11249;52.468;13.776;2022-08-01T16:00:51;24.00;99.90
22167;DHT22;11249;52.468;13.776;2022-08-01T16:03:25;24.40;99.90
22167;DHT22;11249;52.468;13.776;2022-08-01T16:05:53;24.60;99.90
22167;DHT22;11249;52.468;13.776;2022-08-01T16:08:26;24.80;99.90
22167;DHT22;11249;52.468;13.776;2022-08-01T16:10:53;24.90;99.90